Canefield Airport

Cloudy with light showers and slight dust haze
28oC (82oF)

Cloudy with light showers and slight dust haze


Winds: East south easterly @ 05kts / 09km/h

Humidity: 66%

Barometric Pressure: 1014 mb

Accumulated Rainfall for December: 44.7 mm

Updated: 12:00 local time (16:00 UTC)

Douglas-Charles Airport

Partly cloudy
29oC (84oF)

Partly cloudy


Winds: East south easterly @ 09kts / 17km/h

Humidity: 78%

Barometric Pressure: 1016 mb

Accumulated Rainfall for December: 18.9 mm

Updated: 12:00 local time (16:00 UTC)

Satellite Imagery

Satellite Imagery
Click image for larger view. (Source: National Hurricane Center).

Aviation Routine Report (METAR)

Douglas-Charles: METAR TDPD 081600Z 11009KT 9999 SCT017 29/24 Q1016=
Canefield: METAR TDCF 081600Z 11005KT 9999 SCT016 28/22 Q1014=